createdAt,value
2016-08-25T00:00:32.568Z,77.09
2016-08-25T00:01:32.377Z,77.09
2016-08-25T00:02:32.384Z,76.9
2016-08-25T00:03:32.390Z,77.09
2016-08-25T00:04:32.395Z,77.67
2016-08-25T00:05:32.419Z,77.67
2016-08-25T00:06:32.390Z,77.67
2016-08-25T00:07:32.393Z,77.86
2016-08-25T00:08:32.399Z,77.76
2016-08-25T00:09:32.398Z,78.06
2016-08-25T00:10:32.401Z,78.15
2016-08-25T00:11:32.399Z,78.34
2016-08-25T00:12:32.403Z,78.06
2016-08-25T00:13:32.418Z,78.44
2016-08-25T00:14:32.417Z,78.53
2016-08-25T00:15:32.422Z,78.83
2016-08-25T00:16:32.421Z,79.02
2016-08-25T00:17:32.426Z,79.4
2016-08-25T00:18:32.423Z,79.55
2016-08-25T00:19:32.421Z,79.75
2016-08-25T00:20:32.438Z,79.27
2016-08-25T00:21:32.425Z,79.55
2016-08-25T00:22:32.427Z,79.69
2016-08-25T00:23:32.431Z,79.46
2016-08-25T00:24:32.437Z,79.65
2016-08-25T00:25:32.433Z,79.75
2016-08-25T00:26:32.437Z,79.69
2016-08-25T00:27:32.440Z,79.36
2016-08-25T00:28:32.443Z,79.27
2016-08-25T00:29:32.443Z,79.75
2016-08-25T00:30:32.445Z,79.65
2016-08-25T00:31:32.467Z,79.27
2016-08-25T00:32:32.450Z,79.65
2016-08-25T00:33:32.452Z,79.65
2016-08-25T00:34:32.463Z,80.22
2016-08-25T00:35:32.483Z,79.75
2016-08-25T00:36:32.461Z,80.22
2016-08-25T00:37:32.462Z,80.13
2016-08-25T00:38:32.465Z,80.32
2016-08-25T00:39:32.468Z,79.94
2016-08-25T00:40:32.484Z,80.71
2016-08-25T00:41:32.469Z,80.71
2016-08-25T00:42:32.473Z,80.99
2016-08-25T00:43:32.474Z,80.99
2016-08-25T00:44:32.475Z,80.99
2016-08-25T00:45:32.535Z,80.71
2016-08-25T00:46:32.482Z,80.61
2016-08-25T00:47:32.485Z,81.19
2016-08-25T00:48:32.485Z,80.99
2016-08-25T00:49:32.488Z,81.67
2016-08-25T00:50:32.545Z,81.63
2016-08-25T00:51:32.498Z,81.15
2016-08-25T00:52:32.493Z,81.05
2016-08-25T00:53:32.506Z,81.72
2016-08-25T00:54:32.500Z,82.01
2016-08-25T00:55:32.501Z,81.92
2016-08-25T00:56:32.504Z,82.1
2016-08-25T00:57:32.513Z,82.2
2016-08-25T00:58:32.508Z,82.1
2016-08-25T00:59:32.510Z,82.2
2016-08-25T01:00:32.513Z,82.4
2016-08-25T01:01:33.222Z,82.87
2016-08-25T01:02:32.516Z,82.87
2016-08-25T01:03:32.526Z,83.36
2016-08-25T01:04:32.547Z,83.26
2016-08-25T01:05:32.524Z,83.26
2016-08-25T01:06:32.532Z,83.26
2016-08-25T01:07:32.535Z,83.36
2016-08-25T01:08:32.533Z,82.97
2016-08-25T01:09:32.541Z,83.36
2016-08-25T01:10:32.609Z,82.97
2016-08-25T01:11:32.536Z,82.97
2016-08-25T01:12:32.539Z,82.78
2016-08-25T01:13:32.546Z,82.49
2016-08-25T01:14:32.541Z,82.87
2016-08-25T01:15:32.615Z,82.59
2016-08-25T01:16:32.551Z,82.78
2016-08-25T01:17:33.258Z,82.97
2016-08-25T01:18:32.552Z,82.97
2016-08-25T01:19:32.556Z,83.36
2016-08-25T01:20:32.557Z,83.54
2016-08-25T01:21:32.559Z,83.74
2016-08-25T01:22:32.559Z,83.84
2016-08-25T01:23:32.565Z,83.93
2016-08-25T01:24:32.610Z,83.93
2016-08-25T01:25:32.612Z,84.51
2016-08-25T01:26:32.567Z,84.7
2016-08-25T01:27:32.569Z,84.22
2016-08-25T01:28:32.572Z,84.37
2016-08-25T01:29:32.575Z,84.37
2016-08-25T01:30:32.583Z,84.22
2016-08-25T01:31:32.586Z,84.12
2016-08-25T01:32:32.583Z,85.04
2016-08-25T01:33:32.588Z,84.95
2016-08-25T01:34:32.584Z,84.56
2016-08-25T01:35:32.585Z,84.85
2016-08-25T01:36:32.591Z,84.47
2016-08-25T01:37:32.589Z,85.33
2016-08-25T01:38:32.591Z,85.52
2016-08-25T01:39:32.598Z,85.14
2016-08-25T01:40:32.600Z,85.33
2016-08-25T01:41:32.605Z,84.85
2016-08-25T01:42:32.604Z,85.14
2016-08-25T01:43:32.607Z,85.24
2016-08-25T01:44:32.608Z,85.04
2016-08-25T01:45:32.621Z,85.24
2016-08-25T01:46:32.609Z,85.24
2016-08-25T01:47:32.619Z,85.04
2016-08-25T01:48:32.619Z,85.62
2016-08-25T01:49:32.624Z,85.52
2016-08-25T01:50:32.624Z,85.52
2016-08-25T01:51:32.629Z,85.71
2016-08-25T01:52:32.623Z,86
2016-08-25T01:53:32.629Z,86
2016-08-25T01:54:32.628Z,86.1
2016-08-25T01:55:32.683Z,86.77
2016-08-25T01:56:32.628Z,86.58
2016-08-25T01:57:32.634Z,86.77
2016-08-25T01:58:32.687Z,86.38
2016-08-25T01:59:32.693Z,86.68
2016-08-25T02:00:32.802Z,86.77
2016-08-25T02:01:32.636Z,86.58
2016-08-25T02:02:32.642Z,86.58
2016-08-25T02:03:32.650Z,86.25
2016-08-25T02:04:32.650Z,86.29
2016-08-25T02:05:32.680Z,86.44
2016-08-25T02:06:32.650Z,86.29
2016-08-25T02:07:32.650Z,86.58
2016-08-25T02:08:32.653Z,86.34
2016-08-25T02:09:32.653Z,86.72
2016-08-25T02:10:32.662Z,87.01
2016-08-25T02:11:32.666Z,87.01
2016-08-25T02:12:32.663Z,86.63
2016-08-25T02:13:32.668Z,86.96
2016-08-25T02:14:32.667Z,86.96
2016-08-25T02:15:32.664Z,86.44
2016-08-25T02:16:32.665Z,86.25
2016-08-25T02:17:32.666Z,86.54
2016-08-25T02:18:32.677Z,86.87
2016-08-25T02:19:32.683Z,86.96
2016-08-25T02:20:32.705Z,86.92
2016-08-25T02:21:32.673Z,86.72
2016-08-25T02:22:32.683Z,86.96
2016-08-25T02:23:32.686Z,87.21
2016-08-25T02:24:32.677Z,87.21
2016-08-25T02:25:32.686Z,87.21
2016-08-25T02:26:32.687Z,87.3
2016-08-25T02:27:32.696Z,87.21
2016-08-25T02:28:32.698Z,87.4
2016-08-25T02:29:32.686Z,87.4
2016-08-25T02:30:32.696Z,87.59
2016-08-25T02:31:32.702Z,87.59
2016-08-25T02:32:32.701Z,87.98
2016-08-25T02:33:32.704Z,87.88
2016-08-25T02:34:33.022Z,87.78
2016-08-25T02:35:32.718Z,87.78
2016-08-25T02:36:32.704Z,87.88
2016-08-25T02:37:32.705Z,87.68
2016-08-25T02:38:32.702Z,87.59
2016-08-25T02:39:32.712Z,87.68
2016-08-25T02:40:32.739Z,88.07
2016-08-25T02:41:32.721Z,88.17
2016-08-25T02:42:32.712Z,87.68
2016-08-25T02:43:32.724Z,87.4
2016-08-25T02:44:32.715Z,88.07
2016-08-25T02:45:32.738Z,87.88
2016-08-25T02:46:32.720Z,87.59
2016-08-25T02:47:32.721Z,88.26
2016-08-25T02:48:32.721Z,88.35
2016-08-25T02:49:32.723Z,88.55
2016-08-25T02:50:32.795Z,88.55
2016-08-25T02:51:32.726Z,88.26
2016-08-25T02:52:32.727Z,88.65
2016-08-25T02:53:32.730Z,88.45
2016-08-25T02:54:32.742Z,88.26
2016-08-25T02:55:32.798Z,88.26
2016-08-25T02:56:32.743Z,88.45
2016-08-25T02:57:32.735Z,88.55
2016-08-25T02:58:32.747Z,88.26
2016-08-25T02:59:32.748Z,88.65
2016-08-25T03:00:32.847Z,89.22
2016-08-25T03:01:32.747Z,88.74
2016-08-25T03:02:32.747Z,88.65
2016-08-25T03:03:32.747Z,88.35
2016-08-25T03:04:32.749Z,88.55
2016-08-25T03:05:32.759Z,88.55
2016-08-25T03:06:32.752Z,88.65
2016-08-25T03:07:32.757Z,88.45
2016-08-25T03:08:32.756Z,88.45
2016-08-25T03:09:32.765Z,88.65
2016-08-25T03:10:32.829Z,88.07
2016-08-25T03:11:32.768Z,88.07
2016-08-25T03:12:32.765Z,88.35
2016-08-25T03:13:32.767Z,88.74
2016-08-25T03:14:32.764Z,88.65
2016-08-25T03:15:32.769Z,88.35
2016-08-25T03:16:32.772Z,88.55
2016-08-25T03:17:32.770Z,88.26
2016-08-25T03:18:32.776Z,88.55
2016-08-25T03:19:32.786Z,89.22
2016-08-25T03:20:32.842Z,89.32
2016-08-25T03:21:32.784Z,88.55
2016-08-25T03:22:32.781Z,88.65
2016-08-25T03:23:32.790Z,89.32
2016-08-25T03:24:32.793Z,89.12
2016-08-25T03:25:32.796Z,88.79
2016-08-25T03:26:32.787Z,89.12
2016-08-25T03:27:32.792Z,89.51
2016-08-25T03:28:32.788Z,89.22
2016-08-25T03:29:32.791Z,88.74
2016-08-25T03:30:32.793Z,88.98
2016-08-25T03:31:32.797Z,89.41
2016-08-25T03:32:32.795Z,89.08
2016-08-25T03:33:32.801Z,89.75
2016-08-25T03:34:33.513Z,89.56
2016-08-25T03:35:32.813Z,90.04
2016-08-25T03:36:32.808Z,89.85
2016-08-25T03:37:32.814Z,90.33
2016-08-25T03:38:32.811Z,90.23
2016-08-25T03:39:32.808Z,90.04
2016-08-25T03:40:32.827Z,90.04
2016-08-25T03:41:32.815Z,90.14
2016-08-25T03:42:32.813Z,89.94
2016-08-25T03:43:32.813Z,90.33
2016-08-25T03:44:32.819Z,90.61
2016-08-25T03:45:32.892Z,90.9
2016-08-25T03:46:32.817Z,90.61
2016-08-25T03:47:32.823Z,90.52
2016-08-25T03:48:32.820Z,90.61
2016-08-25T03:49:32.822Z,90.71
2016-08-25T03:50:32.833Z,90.33
2016-08-25T03:51:32.823Z,90.71
2016-08-25T03:52:32.828Z,91.57
2016-08-25T03:53:32.831Z,91.57
2016-08-25T03:54:32.831Z,90.61
2016-08-25T03:55:32.831Z,91.38
2016-08-25T03:56:32.842Z,91.09
2016-08-25T03:57:32.833Z,91.48
2016-08-25T03:58:32.835Z,91.48
2016-08-25T03:59:32.843Z,91.38
2016-08-25T04:00:32.939Z,90.61
2016-08-25T04:01:32.841Z,90.42
2016-08-25T04:02:32.849Z,90.23
2016-08-25T04:03:32.855Z,90.61
2016-08-25T04:04:32.850Z,90.9
2016-08-25T04:05:32.851Z,90.52
2016-08-25T04:06:32.852Z,90.9
2016-08-25T04:07:32.852Z,90.42
2016-08-25T04:08:32.853Z,91.57
2016-08-25T04:09:32.853Z,91.34
2016-08-25T04:10:32.853Z,91.34
2016-08-25T04:11:32.857Z,91.14
2016-08-25T04:12:32.867Z,91.34
2016-08-25T04:13:32.857Z,91.14
2016-08-25T04:14:32.867Z,91.14
2016-08-25T04:15:32.895Z,91.19
2016-08-25T04:16:32.862Z,91.38
2016-08-25T04:17:32.865Z,91.28
2016-08-25T04:18:32.864Z,91.38
2016-08-25T04:19:32.876Z,90.67
2016-08-25T04:20:32.868Z,91.34
2016-08-25T04:21:32.882Z,91.57
2016-08-25T04:22:32.870Z,90.71
2016-08-25T04:23:32.872Z,90.57
2016-08-25T04:24:32.875Z,91.38
2016-08-25T04:25:32.875Z,91.38
2016-08-25T04:26:32.878Z,91.53
2016-08-25T04:27:32.881Z,91.38
2016-08-25T04:28:32.879Z,90.71
2016-08-25T04:29:32.886Z,90.52
2016-08-25T04:30:32.883Z,90.33
2016-08-25T04:31:32.884Z,90.52
2016-08-25T04:32:32.887Z,90.52
2016-08-25T04:33:32.887Z,90.81
2016-08-25T04:34:32.895Z,91
2016-08-25T04:35:32.895Z,90.52
2016-08-25T04:36:32.900Z,90.42
2016-08-25T04:37:32.898Z,90.71
2016-08-25T04:38:32.900Z,90.52
2016-08-25T04:39:32.904Z,90.52
2016-08-25T04:40:32.904Z,90.71
2016-08-25T04:41:32.901Z,90.71
2016-08-25T04:42:32.907Z,90.52
2016-08-25T04:43:32.904Z,90.33
2016-08-25T04:44:33.621Z,90.61
2016-08-25T04:45:32.961Z,90.42
2016-08-25T04:46:32.914Z,90.42
2016-08-25T04:47:32.911Z,90.23
2016-08-25T04:48:32.909Z,90.14
2016-08-25T04:49:32.909Z,90.14
2016-08-25T04:50:32.984Z,90.14
2016-08-25T04:51:32.913Z,90.42
2016-08-25T04:52:32.919Z,90.14
2016-08-25T04:53:32.915Z,90.42
2016-08-25T04:54:32.924Z,89.94
2016-08-25T04:55:32.921Z,90.04
2016-08-25T04:56:32.922Z,89.94
2016-08-25T04:57:32.923Z,90.14
2016-08-25T04:58:32.929Z,90.42
2016-08-25T04:59:33.630Z,90.23
2016-08-25T05:00:33.020Z,89.94
2016-08-25T05:01:32.932Z,90.23
2016-08-25T05:02:32.931Z,88.6
2016-08-25T05:03:32.930Z,87.4
2016-08-25T05:04:32.937Z,86.1
2016-08-25T05:05:32.965Z,83.8
2016-08-25T05:06:32.937Z,82.2
2016-08-25T05:07:32.942Z,80.04
2016-08-25T05:08:32.941Z,78.06
2016-08-25T05:09:32.943Z,76.26
2016-08-25T05:10:32.957Z,74.38
2016-08-25T05:11:32.954Z,73.74
2016-08-25T05:12:32.957Z,72.88
2016-08-25T05:13:32.957Z,72.39
2016-08-25T05:14:32.956Z,72.63
2016-08-25T05:15:32.966Z,72.05
2016-08-25T05:16:32.961Z,72.39
2016-08-25T05:17:32.972Z,72.78
2016-08-25T05:18:32.973Z,72.3
2016-08-25T05:19:32.977Z,71.34
2016-08-25T05:20:33.025Z,70.7
2016-08-25T05:21:32.978Z,69.57
2016-08-25T05:22:32.981Z,68.52
2016-08-25T05:23:32.987Z,66.91
2016-08-25T05:24:32.997Z,65.78
2016-08-25T05:25:33.038Z,65.11
2016-08-25T05:26:32.997Z,64.28
2016-08-25T05:27:33.013Z,63.89
2016-08-25T05:28:33.006Z,63.7
2016-08-25T05:29:33.010Z,64.56
2016-08-25T05:30:33.070Z,65.63
2016-08-25T05:31:33.024Z,67.14
2016-08-25T05:32:33.026Z,68.07
2016-08-25T05:33:33.026Z,69.38
2016-08-25T05:34:33.073Z,70.06
2016-08-25T05:35:33.036Z,69.73
2016-08-25T05:36:33.047Z,69.64
2016-08-25T05:37:33.051Z,69.73
2016-08-25T05:38:33.053Z,68.9
2016-08-25T05:39:33.049Z,67.1
2016-08-25T05:40:33.149Z,65.98
2016-08-25T05:41:33.060Z,64.53
2016-08-25T05:42:33.061Z,64.18
2016-08-25T05:43:33.065Z,62.76
2016-08-25T05:44:33.067Z,61.05
2016-08-25T05:45:33.076Z,60.96
2016-08-25T05:46:33.079Z,59.83
2016-08-25T05:47:33.079Z,58.12
2016-08-25T05:48:33.087Z,56.5
2016-08-25T05:49:33.093Z,54.79
2016-08-25T05:50:33.137Z,54.43
2016-08-25T05:51:33.102Z,54.43
2016-08-25T05:52:33.133Z,53.85
2016-08-25T05:53:33.118Z,54.62
2016-08-25T05:54:33.124Z,53.75
2016-08-25T05:55:33.145Z,53.55
2016-08-25T05:56:33.127Z,51.74
2016-08-25T05:57:33.137Z,51.28
2016-08-25T05:58:33.145Z,50.82
2016-08-25T05:59:33.145Z,51.21
2016-08-25T06:00:33.320Z,51.86
2016-08-25T06:01:33.157Z,53.39
2016-08-25T06:02:33.162Z,55.2
2016-08-25T06:03:33.170Z,57.66
2016-08-25T06:04:33.201Z,60.02
2016-08-25T06:05:33.198Z,62.31
2016-08-25T06:06:33.183Z,63.5
2016-08-25T06:07:33.190Z,65.3
2016-08-25T06:08:33.202Z,67
2016-08-25T06:09:33.205Z,69.03
2016-08-25T06:10:33.216Z,69.77
2016-08-25T06:11:33.208Z,70.79
2016-08-25T06:12:33.211Z,71.62
2016-08-25T06:13:33.226Z,72.49
2016-08-25T06:14:33.224Z,73.03
2016-08-25T06:15:33.226Z,73.22
2016-08-25T06:16:33.242Z,73.42
2016-08-25T06:17:33.247Z,73.42
2016-08-25T06:18:33.245Z,73.99
2016-08-25T06:19:33.243Z,73.51
2016-08-25T06:20:33.989Z,72.01
2016-08-25T06:21:33.249Z,70.79
2016-08-25T06:22:33.254Z,69.09
2016-08-25T06:23:33.258Z,67.58
2016-08-25T06:24:33.267Z,67.1
2016-08-25T06:25:33.338Z,65.59
2016-08-25T06:26:33.273Z,64.47
2016-08-25T06:27:33.271Z,62.95
2016-08-25T06:28:33.279Z,60.67
2016-08-25T06:29:33.303Z,58.8
2016-08-25T06:30:33.290Z,57.18
2016-08-25T06:31:33.293Z,54.98
2016-08-25T06:32:33.306Z,53.94
2016-08-25T06:33:33.310Z,53.87
2016-08-25T06:34:33.478Z,53.77
2016-08-25T06:35:33.381Z,54.16
2016-08-25T06:36:33.318Z,53.58
2016-08-25T06:37:33.323Z,52.44
2016-08-25T06:38:33.335Z,51.18
2016-08-25T06:39:33.343Z,50.43
2016-08-25T06:40:33.366Z,47.57
2016-08-25T06:41:33.348Z,46.45
2016-08-25T06:42:33.357Z,44.92
2016-08-25T06:43:34.073Z,43.77
2016-08-25T06:44:33.368Z,42.65
2016-08-25T06:45:33.427Z,41.96
2016-08-25T06:46:33.388Z,40.35
2016-08-25T06:47:33.388Z,40.08
2016-08-25T06:48:33.404Z,39.7
2016-08-25T06:49:33.411Z,40.39
2016-08-25T06:50:33.410Z,40.27
2016-08-25T06:51:33.421Z,39.88
2016-08-25T06:52:33.429Z,39.88
2016-08-25T06:53:33.442Z,39.12
2016-08-25T06:54:33.442Z,37.57
2016-08-25T06:55:33.517Z,37.01
2016-08-25T06:56:33.458Z,36.43
2016-08-25T06:57:33.477Z,36.54
2016-08-25T06:58:33.472Z,36.24
2016-08-25T06:59:33.483Z,35.77
2016-08-25T07:00:33.550Z,35.58
2016-08-25T07:01:33.499Z,35.68
2016-08-25T07:02:34.218Z,34.42
2016-08-25T07:03:33.519Z,34.52
2016-08-25T07:04:33.539Z,34.7
2016-08-25T07:05:33.604Z,35.58
2016-08-25T07:06:33.548Z,36.36
2016-08-25T07:07:33.561Z,35.75
2016-08-25T07:08:33.575Z,35.66
2016-08-25T07:09:33.586Z,34.89
2016-08-25T07:10:33.654Z,34.03
2016-08-25T07:11:33.599Z,33.45
2016-08-25T07:12:33.630Z,33.26
2016-08-25T07:13:33.615Z,32.78
2016-08-25T07:14:33.634Z,33.56
2016-08-25T07:15:33.721Z,33.95
2016-08-25T07:16:33.644Z,35.11
2016-08-25T07:17:33.646Z,34.89
2016-08-25T07:18:33.650Z,34.5
2016-08-25T07:19:33.663Z,34.31
2016-08-25T07:20:33.686Z,35.28
2016-08-25T07:21:33.683Z,35.66
2016-08-25T07:22:33.689Z,35.74
2016-08-25T07:23:33.700Z,36.13
2016-08-25T07:24:33.714Z,36.99
2016-08-25T07:25:33.719Z,37.85
2016-08-25T07:26:33.728Z,39.39
2016-08-25T07:27:33.736Z,41.38
2016-08-25T07:28:33.743Z,44.26
2016-08-25T07:29:33.751Z,46.14
2016-08-25T07:30:33.760Z,47.86
2016-08-25T07:31:33.767Z,49.56
2016-08-25T07:32:33.775Z,50.79
2016-08-25T07:33:33.790Z,52.03
2016-08-25T07:34:33.789Z,52.87
2016-08-25T07:35:33.853Z,53.14
2016-08-25T07:36:33.804Z,53.63
2016-08-25T07:37:33.809Z,53.36
2016-08-25T07:38:33.815Z,52.39
2016-08-25T07:39:33.820Z,50.57
2016-08-25T07:40:33.873Z,48.2
2016-08-25T07:41:33.832Z,46.5
2016-08-25T07:42:33.841Z,44.87
2016-08-25T07:43:33.861Z,44.33
2016-08-25T07:44:33.852Z,43.26
2016-08-25T07:45:33.859Z,43.67
2016-08-25T07:46:33.863Z,43.19
2016-08-25T07:47:33.869Z,42.11
2016-08-25T07:48:33.880Z,41.75
2016-08-25T07:49:33.887Z,41.48
2016-08-25T07:50:33.932Z,41.19
2016-08-25T07:51:33.897Z,39.76
2016-08-25T07:52:33.906Z,38.32
2016-08-25T07:53:33.911Z,39.59
2016-08-25T07:54:33.921Z,40.25
2016-08-25T07:55:33.949Z,40.13
2016-08-25T07:56:33.939Z,39.76
2016-08-25T07:57:33.941Z,39.76
2016-08-25T07:58:33.965Z,40.06
2016-08-25T07:59:33.957Z,38.89
2016-08-25T08:00:34.013Z,38.73
2016-08-25T08:01:33.984Z,37.37
2016-08-25T08:02:33.978Z,37.37
2016-08-25T08:03:33.986Z,37.57
2016-08-25T08:04:34.002Z,36.99
2016-08-25T08:05:34.027Z,36.72
2016-08-25T08:06:34.013Z,36.33
2016-08-25T08:07:34.022Z,35.85
2016-08-25T08:08:34.025Z,35.28
2016-08-25T08:09:34.038Z,34.72
2016-08-25T08:10:34.753Z,35.19
2016-08-25T08:11:34.048Z,35.77
2016-08-25T08:12:34.058Z,35.75
2016-08-25T08:13:34.064Z,35.09
2016-08-25T08:14:34.076Z,34.13
2016-08-25T08:15:34.122Z,33.75
2016-08-25T08:16:34.092Z,34.06
2016-08-25T08:17:34.105Z,34.44
2016-08-25T08:18:34.106Z,34.14
2016-08-25T08:19:34.117Z,34.05
2016-08-25T08:20:34.141Z,33.56
2016-08-25T08:21:34.134Z,32.99
2016-08-25T08:22:34.145Z,32.22
2016-08-25T08:23:34.160Z,32.34
2016-08-25T08:24:34.170Z,32.23
2016-08-25T08:25:34.261Z,32.63
2016-08-25T08:26:34.894Z,33.31
2016-08-25T08:27:34.190Z,33.59
2016-08-25T08:28:34.205Z,33.38
2016-08-25T08:29:34.208Z,33.48
2016-08-25T08:30:34.284Z,33.59
2016-08-25T08:31:34.233Z,34.06
2016-08-25T08:32:34.237Z,33.67
2016-08-25T08:33:34.959Z,33.38
2016-08-25T08:34:34.265Z,32.32
2016-08-25T08:35:34.286Z,32.04
2016-08-25T08:36:34.281Z,31.37
2016-08-25T08:37:34.294Z,32.53
2016-08-25T08:38:34.298Z,33.79
2016-08-25T08:39:34.313Z,35.22
2016-08-25T08:40:34.313Z,36.65
2016-08-25T08:41:34.324Z,37.79
2016-08-25T08:42:34.336Z,39.12
2016-08-25T08:43:34.346Z,40.86
2016-08-25T08:44:35.074Z,41.91
2016-08-25T08:45:34.362Z,42.65
2016-08-25T08:46:34.367Z,43.4
2016-08-25T08:47:34.378Z,44.26
2016-08-25T08:48:34.389Z,45.23
2016-08-25T08:49:34.403Z,45.6
2016-08-25T08:50:34.445Z,46.84
2016-08-25T08:51:34.424Z,47.23
2016-08-25T08:52:34.439Z,47.52
2016-08-25T08:53:34.427Z,47.98
2016-08-25T08:54:34.436Z,47.69
2016-08-25T08:55:34.446Z,47.69
2016-08-25T08:56:34.451Z,48.25
2016-08-25T08:57:34.457Z,48.05
2016-08-25T08:58:34.463Z,48.93
2016-08-25T08:59:34.473Z,49.32
2016-08-25T09:00:34.581Z,49.41
2016-08-25T09:01:34.486Z,48.83
2016-08-25T09:02:34.497Z,49.22
2016-08-25T09:03:34.498Z,49.15
2016-08-25T09:04:34.503Z,49.61
2016-08-25T09:05:34.517Z,49.8
2016-08-25T09:06:34.515Z,49.15
2016-08-25T09:07:34.525Z,49.82
2016-08-25T09:08:34.530Z,49.82
2016-08-25T09:09:34.546Z,49.24
2016-08-25T09:10:34.542Z,48.75
2016-08-25T09:11:34.548Z,48.37
2016-08-25T09:12:34.556Z,48.57
2016-08-25T09:13:34.560Z,48.66
2016-08-25T09:14:34.569Z,48.85
2016-08-25T09:15:34.646Z,49.12
2016-08-25T09:16:34.576Z,49.02
2016-08-25T09:17:34.584Z,49.32
2016-08-25T09:18:34.603Z,50.09
2016-08-25T09:19:34.597Z,50.29
2016-08-25T09:20:34.610Z,50.74
2016-08-25T09:21:34.617Z,51.14
2016-08-25T09:22:34.620Z,51.62
2016-08-25T09:23:35.326Z,51.53
2016-08-25T09:24:35.330Z,51.5
2016-08-25T09:25:34.644Z,51.33
2016-08-25T09:26:34.640Z,51.59
2016-08-25T09:27:34.649Z,51.43
2016-08-25T09:28:34.648Z,51.43
2016-08-25T09:29:35.363Z,51.91
2016-08-25T09:30:34.659Z,51.72
2016-08-25T09:31:34.665Z,52.47
2016-08-25T09:32:34.676Z,51.98
2016-08-25T09:33:34.681Z,51.69
2016-08-25T09:34:34.682Z,52.11
2016-08-25T09:35:34.709Z,51.53
2016-08-25T09:36:34.689Z,51.33
2016-08-25T09:37:34.695Z,51.26
2016-08-25T09:38:34.700Z,51.26
2016-08-25T09:39:34.704Z,51.14
2016-08-25T09:40:34.712Z,51.16
2016-08-25T09:41:34.717Z,51.26
2016-08-25T09:42:34.721Z,51.43
2016-08-25T09:43:34.738Z,50.96
2016-08-25T09:44:34.736Z,50.77
2016-08-25T09:45:34.806Z,51.06
2016-08-25T09:46:34.756Z,51.06
2016-08-25T09:47:34.750Z,50.68
2016-08-25T09:48:34.754Z,50.48
2016-08-25T09:49:34.775Z,50.19
2016-08-25T09:50:34.816Z,50.21
2016-08-25T09:51:34.780Z,50.31
2016-08-25T09:52:35.485Z,50.02
2016-08-25T09:53:34.780Z,49.92
2016-08-25T09:54:34.786Z,50.63
2016-08-25T09:55:34.817Z,49.27
2016-08-25T09:56:34.813Z,49.76
2016-08-25T09:57:34.805Z,48.97
2016-08-25T09:58:34.808Z,48.97
2016-08-25T09:59:34.814Z,48.97
2016-08-25T10:00:34.835Z,49.66
2016-08-25T10:01:34.841Z,48.68
2016-08-25T10:02:34.844Z,48.9
2016-08-25T10:03:34.837Z,48.13
2016-08-25T10:04:34.844Z,48.32
2016-08-25T10:05:34.859Z,47.74
2016-08-25T10:06:34.856Z,47.74
2016-08-25T10:07:34.860Z,47.74
2016-08-25T10:08:35.575Z,47.83
2016-08-25T10:09:34.872Z,48.22
2016-08-25T10:10:34.912Z,48.32
2016-08-25T10:11:34.883Z,49.58
2016-08-25T10:12:34.894Z,48.9
2016-08-25T10:13:34.895Z,48.22
2016-08-25T10:14:34.899Z,47.54
2016-08-25T10:15:34.921Z,47.34
2016-08-25T10:16:34.918Z,47.64
2016-08-25T10:17:34.923Z,50.16
2016-08-25T10:18:34.937Z,47.37
2016-08-25T10:19:34.929Z,47.27
2016-08-25T10:20:34.938Z,49.9
2016-08-25T10:21:34.948Z,48.34
2016-08-25T10:22:34.947Z,48.73
2016-08-25T10:23:34.958Z,47.37
2016-08-25T10:24:34.959Z,47.56
2016-08-25T10:25:35.029Z,47.47
2016-08-25T10:26:34.970Z,47.56
2016-08-25T10:27:34.980Z,48.25
2016-08-25T10:28:34.982Z,47.86
2016-08-25T10:29:34.986Z,47.08
2016-08-25T10:30:35.003Z,46.78
2016-08-25T10:31:35.005Z,46.88
2016-08-25T10:32:35.007Z,48.34
2016-08-25T10:33:35.014Z,46.42
2016-08-25T10:34:35.020Z,46.42
2016-08-25T10:35:35.038Z,46.81
2016-08-25T10:36:35.035Z,46.61
2016-08-25T10:37:35.038Z,46.59
2016-08-25T10:38:35.042Z,46.69
2016-08-25T10:39:35.049Z,46.78
2016-08-25T10:40:35.059Z,48.83
2016-08-25T10:41:35.774Z,46.61
2016-08-25T10:42:35.074Z,46.61
2016-08-25T10:43:35.072Z,48.36
2016-08-25T10:44:35.080Z,46.42
2016-08-25T10:45:35.098Z,47.49
2016-08-25T10:46:35.096Z,47.13
2016-08-25T10:47:35.099Z,45.57
2016-08-25T10:48:35.110Z,45.47
2016-08-25T10:49:35.108Z,44.59
2016-08-25T10:50:35.112Z,44.13
2016-08-25T10:51:35.831Z,44.2
2016-08-25T10:52:35.134Z,46.76
2016-08-25T10:53:35.132Z,45.68
2016-08-25T10:54:35.171Z,45.18
2016-08-25T10:55:35.229Z,45
2016-08-25T10:56:35.857Z,44.23
2016-08-25T10:57:35.158Z,44.23
2016-08-25T10:58:35.163Z,44.62
2016-08-25T10:59:35.174Z,44.52
2016-08-25T11:00:35.240Z,44.71
2016-08-25T11:01:35.181Z,44.4
2016-08-25T11:02:35.187Z,44.49
2016-08-25T11:03:35.193Z,44.4
2016-08-25T11:04:35.212Z,44.4
2016-08-25T11:05:35.217Z,44.2
2016-08-25T11:06:35.224Z,44.1
2016-08-25T11:07:35.219Z,44.03
2016-08-25T11:08:35.222Z,44.03
2016-08-25T11:09:35.230Z,44.03
2016-08-25T11:10:35.244Z,44.13
2016-08-25T11:11:35.260Z,44.32
2016-08-25T11:12:35.256Z,45.49
2016-08-25T11:13:35.259Z,43.47
2016-08-25T11:14:35.261Z,43.76
2016-08-25T11:15:35.274Z,42.59
2016-08-25T11:16:35.275Z,42.88
2016-08-25T11:17:35.278Z,43.37
2016-08-25T11:18:35.287Z,44.05
2016-08-25T11:19:35.293Z,42.69
2016-08-25T11:20:35.299Z,42
2016-08-25T11:21:35.306Z,42.1
2016-08-25T11:22:35.322Z,42.79
2016-08-25T11:23:35.320Z,42.3
2016-08-25T11:24:35.324Z,42.12
2016-08-25T11:25:35.366Z,41.63
2016-08-25T11:26:35.335Z,41.36
2016-08-25T11:27:35.344Z,41.36
2016-08-25T11:28:35.349Z,41.27
2016-08-25T11:29:35.357Z,40.58
2016-08-25T11:30:35.372Z,40.68
2016-08-25T11:31:35.382Z,40
2016-08-25T11:32:35.375Z,39.33
2016-08-25T11:33:35.384Z,39.62
2016-08-25T11:34:35.389Z,39.23
2016-08-25T11:35:35.395Z,39.62
2016-08-25T11:36:35.462Z,39.14
2016-08-25T11:37:35.410Z,39.43
2016-08-25T11:38:35.418Z,39.33
2016-08-25T11:39:35.422Z,39.43
2016-08-25T11:40:35.428Z,38.48
2016-08-25T11:41:35.445Z,38.65
2016-08-25T11:42:35.440Z,39.14
2016-08-25T11:43:36.164Z,39.33
2016-08-25T11:44:35.455Z,39.33
2016-08-25T11:45:35.505Z,38.94
2016-08-25T11:46:35.474Z,38.55
2016-08-25T11:47:35.476Z,39.36
2016-08-25T11:48:35.489Z,38.77
2016-08-25T11:49:35.489Z,37.32
2016-08-25T11:50:35.598Z,36.83
2016-08-25T11:51:35.514Z,38.89
2016-08-25T11:52:35.532Z,39.28
2016-08-25T11:53:35.526Z,38.51
2016-08-25T11:54:35.535Z,36.85
2016-08-25T11:55:35.570Z,37.04
2016-08-25T11:56:35.538Z,36.75
2016-08-25T11:57:35.547Z,36.75
2016-08-25T11:58:35.553Z,36.36
2016-08-25T11:59:35.559Z,36.65
2016-08-25T12:00:35.803Z,36.73
2016-08-25T12:01:35.575Z,36.26
2016-08-25T12:02:35.607Z,36.55
2016-08-25T12:03:35.586Z,35.87
2016-08-25T12:04:35.598Z,35.87
2016-08-25T12:05:35.658Z,38.51
2016-08-25T12:06:35.606Z,36.26
2016-08-25T12:07:35.614Z,36.46
2016-08-25T12:08:35.620Z,35.89
2016-08-25T12:09:35.629Z,35.77
2016-08-25T12:10:35.636Z,37.73
2016-08-25T12:11:35.646Z,37.04
2016-08-25T12:12:35.652Z,36.55
2016-08-25T12:13:35.672Z,37.14
2016-08-25T12:14:35.663Z,38.12
2016-08-25T12:15:35.686Z,38.61
2016-08-25T12:16:35.679Z,38.32
2016-08-25T12:17:35.690Z,36.94
2016-08-25T12:18:35.693Z,36.36
2016-08-25T12:19:35.699Z,36.47
2016-08-25T12:20:35.711Z,36.96
2016-08-25T12:21:35.722Z,37.06
2016-08-25T12:22:35.722Z,36.47
2016-08-25T12:23:35.731Z,35.81
2016-08-25T12:24:35.738Z,35.69
2016-08-25T12:25:35.742Z,35.42
2016-08-25T12:26:35.752Z,35.21
2016-08-25T12:27:35.758Z,35.01
2016-08-25T12:28:35.765Z,34.72
2016-08-25T12:29:35.782Z,34.81
2016-08-25T12:30:35.837Z,35.01
2016-08-25T12:31:35.787Z,34.64
2016-08-25T12:32:35.794Z,34.93
2016-08-25T12:33:35.800Z,33.95
2016-08-25T12:34:35.806Z,33.65
2016-08-25T12:35:35.854Z,35.01
2016-08-25T12:36:35.824Z,35.03
2016-08-25T12:37:35.829Z,35.11
2016-08-25T12:38:35.838Z,36.4
2016-08-25T12:39:35.847Z,35.6
2016-08-25T12:40:35.851Z,35.91
2016-08-25T12:41:35.864Z,37.08
2016-08-25T12:42:35.867Z,37.37
2016-08-25T12:43:35.873Z,35.42
2016-08-25T12:44:35.882Z,34.14
2016-08-25T12:45:35.888Z,33.36
2016-08-25T12:46:35.898Z,32.48
2016-08-25T12:47:35.902Z,33.85
2016-08-25T12:48:35.921Z,35.03
2016-08-25T12:49:35.921Z,34.42
2016-08-25T12:50:35.993Z,33.74
2016-08-25T12:51:35.931Z,35.5
2016-08-25T12:52:35.940Z,34.72
2016-08-25T12:53:35.950Z,34.83
2016-08-25T12:54:35.955Z,33.46
2016-08-25T12:55:35.962Z,33.56